sensor_id;sensor_type;location;lat;lon;timestamp;pressure;altitude;pressure_sealevel;temperature;humidity
73842;BME280;62184;52.006;5.924;2022-07-23T00:02:08;101162.56;;;15.38;66.66
73842;BME280;62184;52.006;5.924;2022-07-23T00:04:34;101157.25;;;15.37;66.78
73842;BME280;62184;52.006;5.924;2022-07-23T00:07:00;101154.72;;;15.32;66.81
73842;BME280;62184;52.006;5.924;2022-07-23T00:09:27;101161.16;;;15.28;67.12
73842;BME280;62184;52.006;5.924;2022-07-23T00:11:56;101162.22;;;15.24;67.14
73842;BME280;62184;52.006;5.924;2022-07-23T00:14:22;101163.34;;;15.18;67.12
73842;BME280;62184;52.006;5.924;2022-07-23T00:16:49;101159.97;;;15.13;67.20
73842;BME280;62184;52.006;5.924;2022-07-23T00:19:15;101159.25;;;15.08;67.50
73842;BME280;62184;52.006;5.924;2022-07-23T00:21:42;101147.75;;;15.05;67.52
73842;BME280;62184;52.006;5.924;2022-07-23T00:24:08;101151.47;;;15.01;67.57
73842;BME280;62184;52.006;5.924;2022-07-23T00:26:34;101151.66;;;14.96;67.93
73842;BME280;62184;52.006;5.924;2022-07-23T00:29:03;101155.44;;;14.90;68.27
73842;BME280;62184;52.006;5.924;2022-07-23T00:31:30;101152.09;;;14.84;68.20
73842;BME280;62184;52.006;5.924;2022-07-23T00:33:56;101152.41;;;14.76;68.06
73842;BME280;62184;52.006;5.924;2022-07-23T00:36:23;101158.00;;;14.70;68.31
73842;BME280;62184;52.006;5.924;2022-07-23T00:38:50;101147.50;;;14.64;68.57
73842;BME280;62184;52.006;5.924;2022-07-23T00:41:16;101150.38;;;14.58;68.63
73842;BME280;62184;52.006;5.924;2022-07-23T00:43:42;101147.88;;;14.53;68.80
73842;BME280;62184;52.006;5.924;2022-07-23T00:46:11;101145.28;;;14.49;69.06
73842;BME280;62184;52.006;5.924;2022-07-23T00:48:38;101145.44;;;14.46;69.27
73842;BME280;62184;52.006;5.924;2022-07-23T00:51:05;101140.97;;;14.45;69.39
73842;BME280;62184;52.006;5.924;2022-07-23T00:53:31;101150.03;;;14.42;69.19
73842;BME280;62184;52.006;5.924;2022-07-23T00:55:58;101136.63;;;14.41;69.52
73842;BME280;62184;52.006;5.924;2022-07-23T00:58:24;101138.53;;;14.39;69.50
73842;BME280;62184;52.006;5.924;2022-07-23T01:00:51;101148.44;;;14.37;69.06
73842;BME280;62184;52.006;5.924;2022-07-23T01:03:20;101144.97;;;14.33;69.42
73842;BME280;62184;52.006;5.924;2022-07-23T01:05:46;101143.34;;;14.29;69.68
73842;BME280;62184;52.006;5.924;2022-07-23T01:08:13;101140.69;;;14.28;69.45
73842;BME280;62184;52.006;5.924;2022-07-23T01:10:39;101131.94;;;14.23;69.88
73842;BME280;62184;52.006;5.924;2022-07-23T01:13:07;101142.81;;;14.18;69.72
73842;BME280;62184;52.006;5.924;2022-07-23T01:15:36;101139.38;;;14.14;69.91
73842;BME280;62184;52.006;5.924;2022-07-23T01:18:05;101136.75;;;14.13;69.95
73842;BME280;62184;52.006;5.924;2022-07-23T01:20:35;101135.03;;;14.10;69.88
73842;BME280;62184;52.006;5.924;2022-07-23T01:23:05;101127.19;;;14.04;69.79
73842;BME280;62184;52.006;5.924;2022-07-23T01:25:31;101127.28;;;14.01;70.16
73842;BME280;62184;52.006;5.924;2022-07-23T01:27:57;101125.66;;;13.97;70.01
73842;BME280;62184;52.006;5.924;2022-07-23T01:30:24;101124.81;;;13.95;70.15
73842;BME280;62184;52.006;5.924;2022-07-23T01:32:50;101131.22;;;13.91;70.56
73842;BME280;62184;52.006;5.924;2022-07-23T01:35:17;101125.19;;;13.85;70.25
73842;BME280;62184;52.006;5.924;2022-07-23T01:37:44;101127.03;;;13.82;70.56
73842;BME280;62184;52.006;5.924;2022-07-23T01:40:13;101129.81;;;13.81;70.71
73842;BME280;62184;52.006;5.924;2022-07-23T01:42:39;101131.53;;;13.82;70.55
73842;BME280;62184;52.006;5.924;2022-07-23T01:45:06;101132.41;;;13.82;70.76
73842;BME280;62184;52.006;5.924;2022-07-23T01:47:33;101128.09;;;13.78;70.61
73842;BME280;62184;52.006;5.924;2022-07-23T01:50:00;101125.44;;;13.77;70.73
73842;BME280;62184;52.006;5.924;2022-07-23T01:52:26;101126.38;;;13.76;70.64
73842;BME280;62184;52.006;5.924;2022-07-23T01:54:53;101130.84;;;13.75;70.65
73842;BME280;62184;52.006;5.924;2022-07-23T01:57:22;101118.38;;;13.74;70.92
73842;BME280;62184;52.006;5.924;2022-07-23T01:59:48;101126.53;;;13.71;71.08
73842;BME280;62184;52.006;5.924;2022-07-23T02:02:15;101132.88;;;13.69;70.96
73842;BME280;62184;52.006;5.924;2022-07-23T02:04:41;101124.88;;;13.67;71.10
73842;BME280;62184;52.006;5.924;2022-07-23T02:07:08;101125.78;;;13.66;70.90
73842;BME280;62184;52.006;5.924;2022-07-23T02:09:34;101127.59;;;13.66;70.88
73842;BME280;62184;52.006;5.924;2022-07-23T02:12:00;101126.72;;;13.65;70.90
73842;BME280;62184;52.006;5.924;2022-07-23T02:14:29;101135.72;;;13.64;70.75
73842;BME280;62184;52.006;5.924;2022-07-23T02:16:56;101134.00;;;13.62;70.61
73842;BME280;62184;52.006;5.924;2022-07-23T02:19:22;101126.88;;;13.61;70.70
73842;BME280;62184;52.006;5.924;2022-07-23T02:21:49;101119.75;;;13.60;71.03
73842;BME280;62184;52.006;5.924;2022-07-23T02:24:15;101113.59;;;13.56;70.97
73842;BME280;62184;52.006;5.924;2022-07-23T02:26:42;101119.09;;;13.53;71.17
73842;BME280;62184;52.006;5.924;2022-07-23T02:29:09;101116.50;;;13.50;71.05
73842;BME280;62184;52.006;5.924;2022-07-23T02:31:38;101115.59;;;13.50;71.05
73842;BME280;62184;52.006;5.924;2022-07-23T02:34:04;101123.66;;;13.50;71.17
73842;BME280;62184;52.006;5.924;2022-07-23T02:36:31;101121.91;;;13.49;71.08
73842;BME280;62184;52.006;5.924;2022-07-23T02:38:58;101120.16;;;13.48;71.25
73842;BME280;62184;52.006;5.924;2022-07-23T02:41:24;101109.47;;;13.46;71.39
73842;BME280;62184;52.006;5.924;2022-07-23T02:43:51;101119.28;;;13.47;71.05
73842;BME280;62184;52.006;5.924;2022-07-23T02:46:17;101122.06;;;13.44;71.26
73842;BME280;62184;52.006;5.924;2022-07-23T02:48:46;101123.88;;;13.43;71.12
73842;BME280;62184;52.006;5.924;2022-07-23T02:51:13;101123.88;;;13.43;71.27
73842;BME280;62184;52.006;5.924;2022-07-23T02:53:39;101114.91;;;13.45;71.29
73842;BME280;62184;52.006;5.924;2022-07-23T02:56:05;101116.66;;;13.46;71.13
73842;BME280;62184;52.006;5.924;2022-07-23T02:58:32;101119.41;;;13.42;71.28
73842;BME280;62184;52.006;5.924;2022-07-23T03:00:58;101119.56;;;13.38;71.12
73842;BME280;62184;52.006;5.924;2022-07-23T03:03:25;101115.19;;;13.34;71.31
73842;BME280;62184;52.006;5.924;2022-07-23T03:05:54;101120.59;;;13.32;71.22
73842;BME280;62184;52.006;5.924;2022-07-23T03:08:20;101120.72;;;13.29;71.53
73842;BME280;62184;52.006;5.924;2022-07-23T03:10:46;101124.41;;;13.25;71.44
73842;BME280;62184;52.006;5.924;2022-07-23T03:13:13;101124.56;;;13.21;71.53
73842;BME280;62184;52.006;5.924;2022-07-23T03:15:39;101115.72;;;13.17;71.68
73842;BME280;62184;52.006;5.924;2022-07-23T03:18:05;101130.06;;;13.16;71.67
73842;BME280;62184;52.006;5.924;2022-07-23T03:20:32;101125.63;;;13.15;71.63
73842;BME280;62184;52.006;5.924;2022-07-23T03:23:01;101130.16;;;13.13;71.95
73842;BME280;62184;52.006;5.924;2022-07-23T03:25:27;101127.56;;;13.10;72.08
73842;BME280;62184;52.006;5.924;2022-07-23T03:27:54;101133.84;;;13.09;71.62
73842;BME280;62184;52.006;5.924;2022-07-23T03:30:20;101129.41;;;13.08;71.98
73842;BME280;62184;52.006;5.924;2022-07-23T03:32:47;101135.66;;;13.09;72.23
73842;BME280;62184;52.006;5.924;2022-07-23T03:35:13;101132.97;;;13.09;72.10
73842;BME280;62184;52.006;5.924;2022-07-23T03:37:40;101137.41;;;13.10;72.20
73842;BME280;62184;52.006;5.924;2022-07-23T03:40:10;101134.69;;;13.11;72.18
73842;BME280;62184;52.006;5.924;2022-07-23T03:42:37;101135.63;;;13.10;72.23
73842;BME280;62184;52.006;5.924;2022-07-23T03:45:04;101136.53;;;13.09;72.47
73842;BME280;62184;52.006;5.924;2022-07-23T03:47:31;101132.97;;;13.09;72.24
73842;BME280;62184;52.006;5.924;2022-07-23T03:49:58;101136.53;;;13.09;72.21
73842;BME280;62184;52.006;5.924;2022-07-23T03:52:24;101140.97;;;13.10;72.08
73842;BME280;62184;52.006;5.924;2022-07-23T03:54:50;101143.63;;;13.12;72.24
73842;BME280;62184;52.006;5.924;2022-07-23T03:57:19;101140.03;;;13.13;72.60
73842;BME280;62184;52.006;5.924;2022-07-23T03:59:46;101149.00;;;13.12;72.78
73842;BME280;62184;52.006;5.924;2022-07-23T04:02:12;101144.47;;;13.14;72.42
73842;BME280;62184;52.006;5.924;2022-07-23T04:04:38;101147.91;;;13.17;72.71
73842;BME280;62184;52.006;5.924;2022-07-23T04:07:05;101143.34;;;13.21;72.56
73842;BME280;62184;52.006;5.924;2022-07-23T04:09:31;101139.63;;;13.25;72.57
73842;BME280;62184;52.006;5.924;2022-07-23T04:11:59;101148.44;;;13.30;72.25
73842;BME280;62184;52.006;5.924;2022-07-23T04:14:28;101144.66;;;13.35;72.26
73842;BME280;62184;52.006;5.924;2022-07-23T04:16:55;101155.28;;;13.40;72.46
73842;BME280;62184;52.006;5.924;2022-07-23T04:19:21;101146.22;;;13.44;72.17
73842;BME280;62184;52.006;5.924;2022-07-23T04:21:47;101139.88;;;13.47;72.15
73842;BME280;62184;52.006;5.924;2022-07-23T04:24:14;101140.59;;;13.52;72.21
73842;BME280;62184;52.006;5.924;2022-07-23T04:26:40;101131.59;;;13.54;72.00
73842;BME280;62184;52.006;5.924;2022-07-23T04:29:07;101140.44;;;13.56;72.05
73842;BME280;62184;52.006;5.924;2022-07-23T04:31:36;101135.84;;;13.60;71.92
73842;BME280;62184;52.006;5.924;2022-07-23T04:34:02;101131.31;;;13.62;71.82
73842;BME280;62184;52.006;5.924;2022-07-23T04:36:29;101138.34;;;13.66;72.00
73842;BME280;62184;52.006;5.924;2022-07-23T04:38:55;101147.19;;;13.69;72.04
73842;BME280;62184;52.006;5.924;2022-07-23T04:41:22;101142.56;;;13.73;71.96
73842;BME280;62184;52.006;5.924;2022-07-23T04:43:48;101152.28;;;13.77;71.95
73842;BME280;62184;52.006;5.924;2022-07-23T04:46:14;101148.59;;;13.81;71.87
73842;BME280;62184;52.006;5.924;2022-07-23T04:48:43;101140.31;;;13.87;71.73
73842;BME280;62184;52.006;5.924;2022-07-23T04:51:10;101149.09;;;13.92;71.69
73842;BME280;62184;52.006;5.924;2022-07-23T04:53:37;101144.50;;;13.96;71.65
73842;BME280;62184;52.006;5.924;2022-07-23T04:56:04;101148.78;;;14.01;71.83
73842;BME280;62184;52.006;5.924;2022-07-23T04:58:30;101150.38;;;14.07;71.87
73842;BME280;62184;52.006;5.924;2022-07-23T05:00:57;101143.06;;;14.12;72.03
73842;BME280;62184;52.006;5.924;2022-07-23T05:03:23;101146.41;;;14.18;71.56
73842;BME280;62184;52.006;5.924;2022-07-23T05:05:52;101139.03;;;14.24;71.39
73842;BME280;62184;52.006;5.924;2022-07-23T05:08:19;101141.63;;;14.27;71.57
73842;BME280;62184;52.006;5.924;2022-07-23T05:10:45;101139.72;;;14.30;71.65
73842;BME280;62184;52.006;5.924;2022-07-23T05:13:11;101144.16;;;14.31;71.79
73842;BME280;62184;52.006;5.924;2022-07-23T05:15:40;101151.28;;;14.32;71.89
73842;BME280;62184;52.006;5.924;2022-07-23T05:18:06;101149.38;;;14.36;71.87
73842;BME280;62184;52.006;5.924;2022-07-23T05:20:33;101152.75;;;14.41;72.02
73842;BME280;62184;52.006;5.924;2022-07-23T05:23:02;101160.72;;;14.44;72.34
73842;BME280;62184;52.006;5.924;2022-07-23T05:25:28;101158.91;;;14.44;72.31
73842;BME280;62184;52.006;5.924;2022-07-23T05:27:55;101165.06;;;14.48;72.09
73842;BME280;62184;52.006;5.924;2022-07-23T05:30:22;101175.69;;;14.51;71.81
73842;BME280;62184;52.006;5.924;2022-07-23T05:32:48;101183.69;;;14.54;71.77
73842;BME280;62184;52.006;5.924;2022-07-23T05:35:14;101177.25;;;14.58;71.59
73842;BME280;62184;52.006;5.924;2022-07-23T05:37:41;101183.41;;;14.62;71.76
73842;BME280;62184;52.006;5.924;2022-07-23T05:40:11;101191.31;;;14.66;71.29
73842;BME280;62184;52.006;5.924;2022-07-23T05:42:39;101195.59;;;14.72;71.39
73842;BME280;62184;52.006;5.924;2022-07-23T05:45:07;101184.72;;;14.75;71.09
73842;BME280;62184;52.006;5.924;2022-07-23T05:47:42;101189.94;;;14.79;70.92
73842;BME280;62184;52.006;5.924;2022-07-23T05:50:10;101194.25;;;14.83;71.09
73842;BME280;62184;52.006;5.924;2022-07-23T05:52:37;101194.16;;;14.86;70.86
73842;BME280;62184;52.006;5.924;2022-07-23T05:55:04;101200.31;;;14.90;70.79
73842;BME280;62184;52.006;5.924;2022-07-23T05:57:34;101204.81;;;14.89;70.80
73842;BME280;62184;52.006;5.924;2022-07-23T06:00:01;101201.16;;;14.90;70.80
73842;BME280;62184;52.006;5.924;2022-07-23T06:02:28;101201.94;;;14.94;70.86
73842;BME280;62184;52.006;5.924;2022-07-23T06:04:55;101201.88;;;14.96;70.83
73842;BME280;62184;52.006;5.924;2022-07-23T06:07:21;101207.13;;;14.99;70.48
73842;BME280;62184;52.006;5.924;2022-07-23T06:09:47;101211.53;;;15.01;70.34
73842;BME280;62184;52.006;5.924;2022-07-23T06:12:15;101212.31;;;15.05;70.49
73842;BME280;62184;52.006;5.924;2022-07-23T06:14:44;101216.63;;;15.09;70.58
73842;BME280;62184;52.006;5.924;2022-07-23T06:17:11;101211.03;;;15.15;70.36
73842;BME280;62184;52.006;5.924;2022-07-23T06:19:37;101207.22;;;15.20;69.86
73842;BME280;62184;52.006;5.924;2022-07-23T06:22:04;101209.72;;;15.25;70.23
73842;BME280;62184;52.006;5.924;2022-07-23T06:24:30;101208.53;;;15.32;69.64
73842;BME280;62184;52.006;5.924;2022-07-23T06:26:56;101202.94;;;15.38;69.77
73842;BME280;62184;52.006;5.924;2022-07-23T06:29:23;101208.91;;;15.46;69.75
73842;BME280;62184;52.006;5.924;2022-07-23T06:31:52;101206.78;;;15.54;69.44
73842;BME280;62184;52.006;5.924;2022-07-23T06:34:18;101214.63;;;15.60;69.25
73842;BME280;62184;52.006;5.924;2022-07-23T06:36:44;101215.22;;;15.68;69.00
73842;BME280;62184;52.006;5.924;2022-07-23T06:39:11;101218.53;;;15.75;68.74
73842;BME280;62184;52.006;5.924;2022-07-23T06:41:37;101217.34;;;15.82;68.92
73842;BME280;62184;52.006;5.924;2022-07-23T06:44:04;101215.31;;;15.89;68.80
73842;BME280;62184;52.006;5.924;2022-07-23T06:46:30;101220.44;;;15.95;68.56
73842;BME280;62184;52.006;5.924;2022-07-23T06:49:00;101221.94;;;16.02;68.46
73842;BME280;62184;52.006;5.924;2022-07-23T06:51:26;101219.78;;;16.10;68.32
73842;BME280;62184;52.006;5.924;2022-07-23T06:53:52;101234.59;;;16.22;68.04
73842;BME280;62184;52.006;5.924;2022-07-23T06:56:19;101242.19;;;16.32;67.70
73842;BME280;62184;52.006;5.924;2022-07-23T06:58:45;101230.97;;;16.43;67.30
73842;BME280;62184;52.006;5.924;2022-07-23T07:01:12;101225.00;;;16.57;67.14
73842;BME280;62184;52.006;5.924;2022-07-23T07:03:38;101224.31;;;16.73;66.90
73842;BME280;62184;52.006;5.924;2022-07-23T07:06:07;101230.59;;;16.93;66.32
73842;BME280;62184;52.006;5.924;2022-07-23T07:08:34;101239.69;;;17.10;66.45
73842;BME280;62184;52.006;5.924;2022-07-23T07:11:00;101236.97;;;17.31;66.21
73842;BME280;62184;52.006;5.924;2022-07-23T07:13:27;101233.47;;;17.47;65.76
73842;BME280;62184;52.006;5.924;2022-07-23T07:15:53;101237.06;;;17.67;65.38
73842;BME280;62184;52.006;5.924;2022-07-23T07:18:19;101230.06;;;17.81;64.82
73842;BME280;62184;52.006;5.924;2022-07-23T07:20:46;101228.59;;;17.93;63.86
73842;BME280;62184;52.006;5.924;2022-07-23T07:23:15;101238.13;;;18.00;63.09
73842;BME280;62184;52.006;5.924;2022-07-23T07:25:41;101230.75;;;18.04;63.95
73842;BME280;62184;52.006;5.924;2022-07-23T07:28:08;101234.59;;;18.17;63.30
73842;BME280;62184;52.006;5.924;2022-07-23T07:30:34;101231.22;;;18.30;62.97
73842;BME280;62184;52.006;5.924;2022-07-23T07:33:00;101236.00;;;18.43;62.66
73842;BME280;62184;52.006;5.924;2022-07-23T07:35:27;101232.78;;;18.53;61.90
73842;BME280;62184;52.006;5.924;2022-07-23T07:37:53;101229.34;;;18.67;61.91
73842;BME280;62184;52.006;5.924;2022-07-23T07:40:22;101228.16;;;18.90;61.53
73842;BME280;62184;52.006;5.924;2022-07-23T07:42:50;101236.13;;;19.08;61.07
73842;BME280;62184;52.006;5.924;2022-07-23T07:45:20;101231.91;;;19.20;61.04
73842;BME280;62184;52.006;5.924;2022-07-23T07:47:47;101227.66;;;19.32;60.60
73842;BME280;62184;52.006;5.924;2022-07-23T07:50:14;101236.00;;;19.44;60.46
73842;BME280;62184;52.006;5.924;2022-07-23T07:52:41;101236.28;;;19.56;60.09
73842;BME280;62184;52.006;5.924;2022-07-23T07:55:09;101240.03;;;19.53;59.42
73842;BME280;62184;52.006;5.924;2022-07-23T07:57:39;101249.03;;;19.54;59.15
73842;BME280;62184;52.006;5.924;2022-07-23T08:00:08;101247.56;;;19.64;59.27
73842;BME280;62184;52.006;5.924;2022-07-23T08:02:41;101254.47;;;19.85;58.54
73842;BME280;62184;52.006;5.924;2022-07-23T08:05:09;101261.78;;;20.00;57.36
73842;BME280;62184;52.006;5.924;2022-07-23T08:07:36;101265.59;;;19.96;57.11
73842;BME280;62184;52.006;5.924;2022-07-23T08:10:03;101255.56;;;19.98;57.10
73842;BME280;62184;52.006;5.924;2022-07-23T08:12:41;101256.78;;;20.08;56.66
73842;BME280;62184;52.006;5.924;2022-07-23T08:15:09;101263.84;;;20.11;56.56
73842;BME280;62184;52.006;5.924;2022-07-23T08:17:36;101256.09;;;20.20;56.87
73842;BME280;62184;52.006;5.924;2022-07-23T08:20:05;101256.25;;;20.33;56.45
73842;BME280;62184;52.006;5.924;2022-07-23T08:22:45;101253.69;;;20.46;55.05
73842;BME280;62184;52.006;5.924;2022-07-23T08:25:13;101254.50;;;20.62;56.10
73842;BME280;62184;52.006;5.924;2022-07-23T08:27:43;101270.47;;;20.82;54.88
73842;BME280;62184;52.006;5.924;2022-07-23T08:30:10;101267.00;;;20.94;54.68
73842;BME280;62184;52.006;5.924;2022-07-23T08:32:48;101266.69;;;21.01;53.58
73842;BME280;62184;52.006;5.924;2022-07-23T08:35:16;101263.56;;;21.07;54.72
73842;BME280;62184;52.006;5.924;2022-07-23T08:37:43;101263.19;;;21.27;54.10
73842;BME280;62184;52.006;5.924;2022-07-23T08:40:11;101259.63;;;21.41;53.34
73842;BME280;62184;52.006;5.924;2022-07-23T08:42:38;101258.66;;;21.56;53.61
73842;BME280;62184;52.006;5.924;2022-07-23T08:45:08;101262.31;;;21.69;51.92
73842;BME280;62184;52.006;5.924;2022-07-23T08:47:36;101267.28;;;21.77;52.13
73842;BME280;62184;52.006;5.924;2022-07-23T08:50:05;101265.44;;;21.91;51.67
73842;BME280;62184;52.006;5.924;2022-07-23T08:52:34;101265.72;;;22.01;52.32
73842;BME280;62184;52.006;5.924;2022-07-23T08:55:06;101260.59;;;22.23;52.04
73842;BME280;62184;52.006;5.924;2022-07-23T08:57:33;101258.78;;;22.36;51.16
73842;BME280;62184;52.006;5.924;2022-07-23T09:00:00;101263.84;;;22.28;51.12
73842;BME280;62184;52.006;5.924;2022-07-23T09:02:29;101265.50;;;22.31;51.23
73842;BME280;62184;52.006;5.924;2022-07-23T09:04:56;101268.88;;;22.49;50.92
73842;BME280;62184;52.006;5.924;2022-07-23T09:07:22;101262.22;;;22.53;49.93
73842;BME280;62184;52.006;5.924;2022-07-23T09:10:05;101255.97;;;22.65;49.38
73842;BME280;62184;52.006;5.924;2022-07-23T09:12:33;101266.88;;;22.77;49.54
73842;BME280;62184;52.006;5.924;2022-07-23T09:15:05;101267.78;;;22.91;48.85
73842;BME280;62184;52.006;5.924;2022-07-23T09:17:42;101276.53;;;23.08;47.45
73842;BME280;62184;52.006;5.924;2022-07-23T09:20:10;101267.56;;;23.19;47.86
73842;BME280;62184;52.006;5.924;2022-07-23T09:22:38;101261.31;;;23.31;47.66
73842;BME280;62184;52.006;5.924;2022-07-23T09:25:09;101272.63;;;23.50;47.50
73842;BME280;62184;52.006;5.924;2022-07-23T09:27:52;101260.25;;;23.70;46.25
73842;BME280;62184;52.006;5.924;2022-07-23T09:30:20;101261.66;;;23.88;47.44
73842;BME280;62184;52.006;5.924;2022-07-23T09:33:06;101257.50;;;23.95;45.70
73842;BME280;62184;52.006;5.924;2022-07-23T09:35:47;101260.91;;;23.99;45.43
73842;BME280;62184;52.006;5.924;2022-07-23T09:38:16;101267.22;;;24.00;46.25
73842;BME280;62184;52.006;5.924;2022-07-23T09:40:44;101273.19;;;24.05;45.47
73842;BME280;62184;52.006;5.924;2022-07-23T09:43:11;101270.00;;;24.11;44.70
73842;BME280;62184;52.006;5.924;2022-07-23T09:45:38;101267.59;;;24.19;45.05
73842;BME280;62184;52.006;5.924;2022-07-23T09:48:15;101259.56;;;24.28;43.70
73842;BME280;62184;52.006;5.924;2022-07-23T09:50:43;101272.25;;;24.29;44.21
73842;BME280;62184;52.006;5.924;2022-07-23T09:53:23;101276.13;;;24.38;44.15
73842;BME280;62184;52.006;5.924;2022-07-23T09:55:51;101268.28;;;24.57;44.19
73842;BME280;62184;52.006;5.924;2022-07-23T09:58:25;101267.25;;;24.71;43.10
73842;BME280;62184;52.006;5.924;2022-07-23T10:00:52;101273.84;;;24.68;42.86
73842;BME280;62184;52.006;5.924;2022-07-23T10:03:23;101258.56;;;24.66;42.85
73842;BME280;62184;52.006;5.924;2022-07-23T10:05:50;101261.19;;;24.79;42.73
73842;BME280;62184;52.006;5.924;2022-07-23T10:08:19;101261.72;;;24.95;42.94
73842;BME280;62184;52.006;5.924;2022-07-23T10:10:48;101254.09;;;25.22;42.96
73842;BME280;62184;52.006;5.924;2022-07-23T10:13:17;101256.50;;;25.38;42.44
73842;BME280;62184;52.006;5.924;2022-07-23T10:15:44;101256.28;;;25.41;42.09
73842;BME280;62184;52.006;5.924;2022-07-23T10:18:11;101251.91;;;25.27;41.44
73842;BME280;62184;52.006;5.924;2022-07-23T10:20:40;101252.13;;;25.24;41.05
73842;BME280;62184;52.006;5.924;2022-07-23T10:23:14;101246.88;;;25.21;40.84
73842;BME280;62184;52.006;5.924;2022-07-23T10:25:54;101250.91;;;25.28;41.78
73842;BME280;62184;52.006;5.924;2022-07-23T10:28:48;101244.81;;;25.47;40.02
73842;BME280;62184;52.006;5.924;2022-07-23T10:31:35;101250.91;;;25.39;40.82
73842;BME280;62184;52.006;5.924;2022-07-23T10:34:17;101250.56;;;25.44;41.02
73842;BME280;62184;52.006;5.924;2022-07-23T10:36:56;101252.91;;;25.60;41.09
73842;BME280;62184;52.006;5.924;2022-07-23T10:39:29;101249.91;;;25.74;40.98
73842;BME280;62184;52.006;5.924;2022-07-23T10:42:08;101248.91;;;25.97;40.53
73842;BME280;62184;52.006;5.924;2022-07-23T10:44:38;101255.47;;;26.28;40.29
73842;BME280;62184;52.006;5.924;2022-07-23T10:47:06;101241.69;;;26.50;39.84
73842;BME280;62184;52.006;5.924;2022-07-23T10:49:33;101244.75;;;26.68;40.01
73842;BME280;62184;52.006;5.924;2022-07-23T10:52:23;101250.34;;;26.87;37.40
73842;BME280;62184;52.006;5.924;2022-07-23T10:54:52;101239.47;;;26.97;38.77
73842;BME280;62184;52.006;5.924;2022-07-23T10:57:23;101237.97;;;27.14;38.84
73842;BME280;62184;52.006;5.924;2022-07-23T11:00:13;101240.00;;;27.33;37.75
73842;BME280;62184;52.006;5.924;2022-07-23T11:02:48;101244.63;;;27.32;38.34
73842;BME280;62184;52.006;5.924;2022-07-23T11:05:17;101248.09;;;27.34;38.95
73842;BME280;62184;52.006;5.924;2022-07-23T11:08:15;101246.09;;;27.36;37.87
73842;BME280;62184;52.006;5.924;2022-07-23T11:10:54;101240.25;;;27.29;37.56
73842;BME280;62184;52.006;5.924;2022-07-23T11:13:37;101238.19;;;27.22;38.73
73842;BME280;62184;52.006;5.924;2022-07-23T11:16:17;101236.47;;;27.21;38.39
73842;BME280;62184;52.006;5.924;2022-07-23T11:19:07;101249.47;;;27.19;37.62
73842;BME280;62184;52.006;5.924;2022-07-23T11:21:41;101242.75;;;27.33;37.21
73842;BME280;62184;52.006;5.924;2022-07-23T11:24:13;101237.13;;;27.34;37.39
73842;BME280;62184;52.006;5.924;2022-07-23T11:26:44;101245.81;;;27.39;37.61
73842;BME280;62184;52.006;5.924;2022-07-23T11:32:38;101247.78;;;27.88;36.03
73842;BME280;62184;52.006;5.924;2022-07-23T11:35:23;101244.09;;;28.09;35.70
73842;BME280;62184;52.006;5.924;2022-07-23T11:37:52;101248.97;;;28.05;36.68
73842;BME280;62184;52.006;5.924;2022-07-23T11:40:23;101239.44;;;27.99;35.93
73842;BME280;62184;52.006;5.924;2022-07-23T11:42:56;101251.88;;;28.13;36.25
73842;BME280;62184;52.006;5.924;2022-07-23T11:45:25;101249.50;;;28.39;36.13
73842;BME280;62184;52.006;5.924;2022-07-23T11:47:56;101241.41;;;28.57;35.35
73842;BME280;62184;52.006;5.924;2022-07-23T11:50:24;101232.28;;;28.66;35.29
73842;BME280;62184;52.006;5.924;2022-07-23T11:52:50;101228.41;;;28.78;35.03
73842;BME280;62184;52.006;5.924;2022-07-23T11:55:17;101230.97;;;28.89;34.35
73842;BME280;62184;52.006;5.924;2022-07-23T11:57:47;101229.09;;;28.99;33.02
73842;BME280;62184;52.006;5.924;2022-07-23T12:00:15;101239.38;;;28.97;33.91
73842;BME280;62184;52.006;5.924;2022-07-23T12:02:46;101229.81;;;29.11;33.61
73842;BME280;62184;52.006;5.924;2022-07-23T12:05:17;101234.44;;;29.10;33.13
73842;BME280;62184;52.006;5.924;2022-07-23T12:07:48;101225.06;;;29.03;32.78
73842;BME280;62184;52.006;5.924;2022-07-23T12:10:18;101237.50;;;28.98;33.06
73842;BME280;62184;52.006;5.924;2022-07-23T12:12:50;101234.31;;;29.02;32.88
73842;BME280;62184;52.006;5.924;2022-07-23T12:15:20;101233.72;;;29.08;32.69
73842;BME280;62184;52.006;5.924;2022-07-23T12:17:49;101232.59;;;29.01;32.81
73842;BME280;62184;52.006;5.924;2022-07-23T12:20:20;101236.63;;;28.97;32.87
73842;BME280;62184;52.006;5.924;2022-07-23T12:22:51;101228.09;;;28.81;32.74
73842;BME280;62184;52.006;5.924;2022-07-23T12:25:20;101225.38;;;28.62;32.70
73842;BME280;62184;52.006;5.924;2022-07-23T12:28:04;101234.75;;;28.40;32.85
73842;BME280;62184;52.006;5.924;2022-07-23T12:30:38;101235.00;;;28.27;33.34
73842;BME280;62184;52.006;5.924;2022-07-23T12:33:08;101238.22;;;28.42;34.04
73842;BME280;62184;52.006;5.924;2022-07-23T12:35:39;101227.53;;;28.49;34.17
73842;BME280;62184;52.006;5.924;2022-07-23T12:38:07;101232.16;;;28.58;33.76
73842;BME280;62184;52.006;5.924;2022-07-23T12:40:42;101228.84;;;28.45;33.88
73842;BME280;62184;52.006;5.924;2022-07-23T12:43:21;101225.19;;;28.34;33.80
73842;BME280;62184;52.006;5.924;2022-07-23T12:45:50;101224.50;;;28.42;34.21
73842;BME280;62184;52.006;5.924;2022-07-23T12:48:22;101215.53;;;28.50;34.13
73842;BME280;62184;52.006;5.924;2022-07-23T12:50:52;101207.41;;;28.48;33.95
73842;BME280;62184;52.006;5.924;2022-07-23T12:53:23;101218.41;;;28.38;33.77
73842;BME280;62184;52.006;5.924;2022-07-23T12:55:58;101215.47;;;28.30;33.78
73842;BME280;62184;52.006;5.924;2022-07-23T12:58:40;101214.94;;;28.46;34.02
73842;BME280;62184;52.006;5.924;2022-07-23T13:01:09;101211.75;;;28.70;34.50
73842;BME280;62184;52.006;5.924;2022-07-23T13:03:38;101212.31;;;28.93;33.95